Skip Navigation Links
NOAA logo - Click to go to the NOAA homepage
NOAA's National Weather Service
Alaska Aviation Weather Unit
  NWS logo - Click to go to the NWS homepage
Left Navbar Graphic     19 AKDT = 03 GMT

   
NOAA is celebrating 200 years of science, service, and stewardship. Visit the NOAA 200th celebration Web site to learn more.
USA.gov is the U.S. Government's official Web portal to all Federal, state and local government Web resources and services.
Facebook
NWS on Facebook

Important Change Regarding the AAWU Web Presence

 

Over the last several months, the AAWU has been working to navigate its webpages to a nationally supported server. Security, as well as other needs, have necessitated the change.  We have been given an extension for the site changeover while we diligently work at addressing feedback received. As of July 14, 2017, aawu.arh.noaa.gov will be discontinued. The new AAWU web address is weather.gov/aawu. It is now live and will run in-parallel with the old site until it is discontinued on July 14, 2017. Please continue to send any feedback or questions regarding the new webpages to nws.ar.aawu.webauthors@noaa.gov.  Thank you for your patience during this time of transition.
AAWU Home :: Display TAF Add Bookmark
PALU 282131Z AUTO 08006KT 10SM TS SCT080 16/08 A2962=

PALU 282151Z AUTO 12004KT 10SM -SHRA BKN060 12/08 A2962=

METAR PALU 282155Z AUTO 13002KT 10SM -SHRA VCTS BKN060 12/09 A2963=

PALU 282231Z AUTO 21011KT 10SM VCTS FEW008 BKN050 17/14 A2963=

METAR PALU 282255Z AUTO 24008KT 200V270 10SM FEW055 FEW070 18/14
     A2964=

METAR PALU 282355Z AUTO 29002KT 10SM FEW037 BKN070 BKN085 BKN100 12/09
     A2966=

METAR PALU 290055Z AUTO 07007KT 10SM SCT032 BKN070 13/10 A2966=

METAR PALU 290155Z AUTO 18016G23KT 10SM SCT029 BKN075 16/10 A2967=

METAR PALU 290255Z AUTO 19013G25KT 10SM FEW030 15/09 A2968=

PALU 290331Z AUTO 21006KT 10SM BKN028 15/10 A2968=


NOAA's National Weather Service
Alaska Aviation Weather Unit
6930 Sand Lake Road
Anchorage, AK 99502-1845
Disclaimer
Credits
Glossary
Privacy Policy
About Us
Career Opportunities
Contact AAWU Internet Services Site last modified: April, 17th 2012